sensor_id;sensor_type;location;lat;lon;timestamp;P1;durP1;ratioP1;P2;durP2;ratioP2
8861;SDS011;4799;50.996;4.754;2023-05-07T00:01:53;6.83;;;6.13;;
8861;SDS011;4799;50.996;4.754;2023-05-07T00:04:19;6.60;;;6.00;;
8861;SDS011;4799;50.996;4.754;2023-05-07T00:06:45;6.90;;;6.20;;
8861;SDS011;4799;50.996;4.754;2023-05-07T00:09:11;6.03;;;5.53;;
8861;SDS011;4799;50.996;4.754;2023-05-07T00:11:37;6.20;;;5.60;;
8861;SDS011;4799;50.996;4.754;2023-05-07T00:14:03;7.37;;;6.37;;
8861;SDS011;4799;50.996;4.754;2023-05-07T00:16:29;6.23;;;5.63;;
8861;SDS011;4799;50.996;4.754;2023-05-07T00:18:54;6.97;;;6.27;;
8861;SDS011;4799;50.996;4.754;2023-05-07T00:21:20;8.87;;;7.97;;
8861;SDS011;4799;50.996;4.754;2023-05-07T00:23:46;7.03;;;6.43;;
8861;SDS011;4799;50.996;4.754;2023-05-07T00:26:12;6.67;;;6.07;;
8861;SDS011;4799;50.996;4.754;2023-05-07T00:28:38;6.03;;;5.43;;
8861;SDS011;4799;50.996;4.754;2023-05-07T00:31:04;6.73;;;6.13;;
8861;SDS011;4799;50.996;4.754;2023-05-07T00:33:30;7.07;;;6.00;;
8861;SDS011;4799;50.996;4.754;2023-05-07T00:35:55;6.20;;;5.60;;
8861;SDS011;4799;50.996;4.754;2023-05-07T00:38:21;5.17;;;4.77;;
8861;SDS011;4799;50.996;4.754;2023-05-07T00:40:47;6.20;;;5.60;;
8861;SDS011;4799;50.996;4.754;2023-05-07T00:43:12;6.27;;;5.77;;
8861;SDS011;4799;50.996;4.754;2023-05-07T00:45:38;7.73;;;6.60;;
8861;SDS011;4799;50.996;4.754;2023-05-07T00:48:04;6.70;;;6.10;;
8861;SDS011;4799;50.996;4.754;2023-05-07T00:50:30;6.57;;;6.07;;
8861;SDS011;4799;50.996;4.754;2023-05-07T00:52:56;6.80;;;6.20;;
8861;SDS011;4799;50.996;4.754;2023-05-07T00:55:23;6.27;;;5.67;;
8861;SDS011;4799;50.996;4.754;2023-05-07T00:57:49;6.80;;;6.17;;
8861;SDS011;4799;50.996;4.754;2023-05-07T01:00:16;6.87;;;6.17;;
8861;SDS011;4799;50.996;4.754;2023-05-07T01:02:43;6.57;;;6.07;;
8861;SDS011;4799;50.996;4.754;2023-05-07T01:05:10;7.33;;;6.60;;
8861;SDS011;4799;50.996;4.754;2023-05-07T01:07:38;7.40;;;6.70;;
8861;SDS011;4799;50.996;4.754;2023-05-07T01:10:06;9.33;;;7.50;;
8861;SDS011;4799;50.996;4.754;2023-05-07T01:12:34;9.10;;;8.30;;
8861;SDS011;4799;50.996;4.754;2023-05-07T01:15:03;8.77;;;8.07;;
8861;SDS011;4799;50.996;4.754;2023-05-07T01:17:33;8.97;;;8.07;;
8861;SDS011;4799;50.996;4.754;2023-05-07T01:20:00;8.53;;;7.83;;
8861;SDS011;4799;50.996;4.754;2023-05-07T01:22:33;9.90;;;9.00;;
8861;SDS011;4799;50.996;4.754;2023-05-07T01:25:03;9.83;;;8.83;;
8861;SDS011;4799;50.996;4.754;2023-05-07T01:27:29;8.63;;;7.80;;
8861;SDS011;4799;50.996;4.754;2023-05-07T01:29:55;9.00;;;8.10;;
8861;SDS011;4799;50.996;4.754;2023-05-07T01:32:24;9.00;;;8.10;;
8861;SDS011;4799;50.996;4.754;2023-05-07T01:34:54;7.33;;;6.63;;
8861;SDS011;4799;50.996;4.754;2023-05-07T01:37:22;7.27;;;6.67;;
8861;SDS011;4799;50.996;4.754;2023-05-07T01:39:49;8.50;;;7.77;;
8861;SDS011;4799;50.996;4.754;2023-05-07T01:42:15;9.67;;;8.10;;
8861;SDS011;4799;50.996;4.754;2023-05-07T01:44:41;8.30;;;7.50;;
8861;SDS011;4799;50.996;4.754;2023-05-07T01:47:07;8.20;;;7.50;;
8861;SDS011;4799;50.996;4.754;2023-05-07T01:49:34;8.77;;;7.97;;
8861;SDS011;4799;50.996;4.754;2023-05-07T01:52:00;8.50;;;7.70;;
8861;SDS011;4799;50.996;4.754;2023-05-07T01:54:26;9.23;;;8.43;;
8861;SDS011;4799;50.996;4.754;2023-05-07T01:56:56;8.93;;;8.23;;
8861;SDS011;4799;50.996;4.754;2023-05-07T01:59:22;8.37;;;7.67;;
8861;SDS011;4799;50.996;4.754;2023-05-07T02:01:48;9.43;;;8.53;;
8861;SDS011;4799;50.996;4.754;2023-05-07T02:04:13;9.90;;;9.00;;
8861;SDS011;4799;50.996;4.754;2023-05-07T02:06:39;9.93;;;9.17;;
8861;SDS011;4799;50.996;4.754;2023-05-07T02:09:05;11.37;;;10.27;;
8861;SDS011;4799;50.996;4.754;2023-05-07T02:11:31;10.30;;;9.40;;
8861;SDS011;4799;50.996;4.754;2023-05-07T02:13:57;11.03;;;10.03;;
8861;SDS011;4799;50.996;4.754;2023-05-07T02:16:23;11.80;;;10.77;;
8861;SDS011;4799;50.996;4.754;2023-05-07T02:18:49;11.90;;;10.90;;
8861;SDS011;4799;50.996;4.754;2023-05-07T02:21:14;11.37;;;10.47;;
8861;SDS011;4799;50.996;4.754;2023-05-07T02:23:40;11.60;;;10.40;;
8861;SDS011;4799;50.996;4.754;2023-05-07T02:26:06;11.13;;;10.17;;
8861;SDS011;4799;50.996;4.754;2023-05-07T02:28:32;12.27;;;11.17;;
8861;SDS011;4799;50.996;4.754;2023-05-07T02:31:01;11.63;;;10.70;;
8861;SDS011;4799;50.996;4.754;2023-05-07T02:33:28;12.30;;;11.30;;
8861;SDS011;4799;50.996;4.754;2023-05-07T02:35:53;11.40;;;10.40;;
8861;SDS011;4799;50.996;4.754;2023-05-07T02:38:19;12.70;;;11.50;;
8861;SDS011;4799;50.996;4.754;2023-05-07T02:40:45;11.60;;;10.60;;
8861;SDS011;4799;50.996;4.754;2023-05-07T02:43:11;11.33;;;10.33;;
8861;SDS011;4799;50.996;4.754;2023-05-07T02:45:36;11.50;;;10.60;;
8861;SDS011;4799;50.996;4.754;2023-05-07T02:48:03;11.50;;;10.57;;
8861;SDS011;4799;50.996;4.754;2023-05-07T02:50:29;10.70;;;9.80;;
8861;SDS011;4799;50.996;4.754;2023-05-07T02:52:55;11.00;;;9.90;;
8861;SDS011;4799;50.996;4.754;2023-05-07T02:55:21;11.87;;;10.90;;
8861;SDS011;4799;50.996;4.754;2023-05-07T02:57:46;12.40;;;11.40;;
8861;SDS011;4799;50.996;4.754;2023-05-07T03:00:16;13.03;;;11.87;;
8861;SDS011;4799;50.996;4.754;2023-05-07T03:02:46;12.03;;;11.07;;
8861;SDS011;4799;50.996;4.754;2023-05-07T03:05:12;10.63;;;9.73;;
8861;SDS011;4799;50.996;4.754;2023-05-07T03:07:39;10.37;;;9.57;;
8861;SDS011;4799;50.996;4.754;2023-05-07T03:10:06;12.07;;;10.97;;
8861;SDS011;4799;50.996;4.754;2023-05-07T03:12:32;10.70;;;9.80;;
8861;SDS011;4799;50.996;4.754;2023-05-07T03:14:58;12.03;;;11.13;;
8861;SDS011;4799;50.996;4.754;2023-05-07T03:17:23;11.53;;;10.43;;
8861;SDS011;4799;50.996;4.754;2023-05-07T03:19:49;12.70;;;11.60;;
8861;SDS011;4799;50.996;4.754;2023-05-07T03:22:15;11.23;;;10.33;;
8861;SDS011;4799;50.996;4.754;2023-05-07T03:24:41;11.43;;;10.40;;
8861;SDS011;4799;50.996;4.754;2023-05-07T03:27:06;11.63;;;10.63;;
8861;SDS011;4799;50.996;4.754;2023-05-07T03:29:32;10.63;;;9.53;;
8861;SDS011;4799;50.996;4.754;2023-05-07T03:31:58;11.93;;;10.77;;
8861;SDS011;4799;50.996;4.754;2023-05-07T03:34:23;10.50;;;9.67;;
8861;SDS011;4799;50.996;4.754;2023-05-07T03:36:49;11.07;;;10.23;;
8861;SDS011;4799;50.996;4.754;2023-05-07T03:39:15;11.23;;;10.33;;
8861;SDS011;4799;50.996;4.754;2023-05-07T03:41:40;10.77;;;9.87;;
8861;SDS011;4799;50.996;4.754;2023-05-07T03:44:06;10.90;;;10.00;;
8861;SDS011;4799;50.996;4.754;2023-05-07T03:46:33;10.13;;;9.33;;
8861;SDS011;4799;50.996;4.754;2023-05-07T03:48:59;9.47;;;8.67;;
8861;SDS011;4799;50.996;4.754;2023-05-07T03:51:25;9.53;;;8.73;;
8861;SDS011;4799;50.996;4.754;2023-05-07T03:53:50;9.97;;;9.07;;
8861;SDS011;4799;50.996;4.754;2023-05-07T03:56:19;10.03;;;9.20;;
8861;SDS011;4799;50.996;4.754;2023-05-07T03:58:47;10.07;;;9.20;;
8861;SDS011;4799;50.996;4.754;2023-05-07T04:01:12;10.60;;;9.70;;
8861;SDS011;4799;50.996;4.754;2023-05-07T04:03:38;10.10;;;9.30;;
8861;SDS011;4799;50.996;4.754;2023-05-07T04:06:04;11.00;;;10.10;;
8861;SDS011;4799;50.996;4.754;2023-05-07T04:08:30;9.60;;;8.90;;
8861;SDS011;4799;50.996;4.754;2023-05-07T04:10:56;9.63;;;8.83;;
8861;SDS011;4799;50.996;4.754;2023-05-07T04:13:23;10.07;;;9.27;;
8861;SDS011;4799;50.996;4.754;2023-05-07T04:15:49;10.17;;;9.37;;
8861;SDS011;4799;50.996;4.754;2023-05-07T04:18:16;12.30;;;11.20;;
8861;SDS011;4799;50.996;4.754;2023-05-07T04:20:41;10.13;;;9.33;;
8861;SDS011;4799;50.996;4.754;2023-05-07T04:23:07;9.97;;;9.17;;
8861;SDS011;4799;50.996;4.754;2023-05-07T04:25:33;11.00;;;10.10;;
8861;SDS011;4799;50.996;4.754;2023-05-07T04:27:59;10.53;;;9.73;;
8861;SDS011;4799;50.996;4.754;2023-05-07T04:30:25;12.27;;;11.20;;
8861;SDS011;4799;50.996;4.754;2023-05-07T04:32:51;11.83;;;10.90;;
8861;SDS011;4799;50.996;4.754;2023-05-07T04:35:18;10.73;;;9.83;;
8861;SDS011;4799;50.996;4.754;2023-05-07T04:37:43;11.40;;;10.50;;
8861;SDS011;4799;50.996;4.754;2023-05-07T04:40:09;10.43;;;9.53;;
8861;SDS011;4799;50.996;4.754;2023-05-07T04:42:35;10.87;;;10.03;;
8861;SDS011;4799;50.996;4.754;2023-05-07T04:45:01;9.70;;;8.90;;
8861;SDS011;4799;50.996;4.754;2023-05-07T04:47:27;10.60;;;9.70;;
8861;SDS011;4799;50.996;4.754;2023-05-07T04:49:53;13.20;;;12.03;;
8861;SDS011;4799;50.996;4.754;2023-05-07T04:52:19;11.50;;;10.50;;
8861;SDS011;4799;50.996;4.754;2023-05-07T04:54:45;12.40;;;11.40;;
8861;SDS011;4799;50.996;4.754;2023-05-07T04:57:11;12.23;;;11.23;;
8861;SDS011;4799;50.996;4.754;2023-05-07T04:59:37;11.97;;;11.00;;
8861;SDS011;4799;50.996;4.754;2023-05-07T05:02:02;10.40;;;9.60;;
8861;SDS011;4799;50.996;4.754;2023-05-07T05:04:29;11.70;;;10.77;;
8861;SDS011;4799;50.996;4.754;2023-05-07T05:06:55;11.40;;;10.37;;
8861;SDS011;4799;50.996;4.754;2023-05-07T05:09:21;11.00;;;10.03;;
8861;SDS011;4799;50.996;4.754;2023-05-07T05:11:47;10.20;;;9.30;;
8861;SDS011;4799;50.996;4.754;2023-05-07T05:14:12;10.60;;;9.60;;
8861;SDS011;4799;50.996;4.754;2023-05-07T05:16:38;11.10;;;10.20;;
8861;SDS011;4799;50.996;4.754;2023-05-07T05:19:04;10.83;;;9.93;;
8861;SDS011;4799;50.996;4.754;2023-05-07T05:21:30;11.57;;;10.50;;
8861;SDS011;4799;50.996;4.754;2023-05-07T05:23:56;10.53;;;9.43;;
8861;SDS011;4799;50.996;4.754;2023-05-07T05:26:23;10.10;;;9.30;;
8861;SDS011;4799;50.996;4.754;2023-05-07T05:28:49;11.40;;;10.43;;
8861;SDS011;4799;50.996;4.754;2023-05-07T05:31:15;11.00;;;10.10;;
8861;SDS011;4799;50.996;4.754;2023-05-07T05:33:41;10.97;;;9.93;;
8861;SDS011;4799;50.996;4.754;2023-05-07T05:36:09;10.87;;;9.87;;
8861;SDS011;4799;50.996;4.754;2023-05-07T05:38:35;12.20;;;11.10;;
8861;SDS011;4799;50.996;4.754;2023-05-07T05:41:01;10.30;;;9.50;;
8861;SDS011;4799;50.996;4.754;2023-05-07T05:43:27;10.27;;;9.47;;
8861;SDS011;4799;50.996;4.754;2023-05-07T05:45:52;9.77;;;9.03;;
8861;SDS011;4799;50.996;4.754;2023-05-07T05:48:18;9.93;;;9.03;;
8861;SDS011;4799;50.996;4.754;2023-05-07T05:50:44;11.10;;;10.13;;
8861;SDS011;4799;50.996;4.754;2023-05-07T05:53:10;10.33;;;9.43;;
8861;SDS011;4799;50.996;4.754;2023-05-07T05:55:36;11.53;;;10.60;;
8861;SDS011;4799;50.996;4.754;2023-05-07T05:58:02;10.53;;;9.73;;
8861;SDS011;4799;50.996;4.754;2023-05-07T06:00:28;10.73;;;9.83;;
8861;SDS011;4799;50.996;4.754;2023-05-07T06:02:54;10.87;;;10.07;;
8861;SDS011;4799;50.996;4.754;2023-05-07T06:05:20;11.70;;;10.50;;
8861;SDS011;4799;50.996;4.754;2023-05-07T06:07:46;9.97;;;9.10;;
8861;SDS011;4799;50.996;4.754;2023-05-07T06:10:12;10.90;;;10.10;;
8861;SDS011;4799;50.996;4.754;2023-05-07T06:12:37;11.13;;;10.27;;
8861;SDS011;4799;50.996;4.754;2023-05-07T06:15:03;10.23;;;9.33;;
8861;SDS011;4799;50.996;4.754;2023-05-07T06:17:29;10.43;;;9.53;;
8861;SDS011;4799;50.996;4.754;2023-05-07T06:19:55;9.77;;;8.97;;
8861;SDS011;4799;50.996;4.754;2023-05-07T06:22:21;10.43;;;9.60;;
8861;SDS011;4799;50.996;4.754;2023-05-07T06:24:47;11.10;;;10.30;;
8861;SDS011;4799;50.996;4.754;2023-05-07T06:27:12;10.67;;;9.77;;
8861;SDS011;4799;50.996;4.754;2023-05-07T06:29:38;11.13;;;10.23;;
8861;SDS011;4799;50.996;4.754;2023-05-07T06:32:11;11.27;;;10.27;;
8861;SDS011;4799;50.996;4.754;2023-05-07T06:34:38;10.23;;;9.43;;
8861;SDS011;4799;50.996;4.754;2023-05-07T06:37:04;10.40;;;9.60;;
8861;SDS011;4799;50.996;4.754;2023-05-07T06:39:30;10.50;;;9.47;;
8861;SDS011;4799;50.996;4.754;2023-05-07T06:41:56;10.67;;;9.70;;
8861;SDS011;4799;50.996;4.754;2023-05-07T06:44:22;10.10;;;9.20;;
8861;SDS011;4799;50.996;4.754;2023-05-07T06:46:48;8.90;;;8.10;;
8861;SDS011;4799;50.996;4.754;2023-05-07T06:49:14;9.87;;;9.10;;
8861;SDS011;4799;50.996;4.754;2023-05-07T06:51:40;9.13;;;8.43;;
8861;SDS011;4799;50.996;4.754;2023-05-07T06:54:06;8.80;;;8.10;;
8861;SDS011;4799;50.996;4.754;2023-05-07T06:56:32;10.43;;;9.33;;
8861;SDS011;4799;50.996;4.754;2023-05-07T06:58:59;10.13;;;9.23;;
8861;SDS011;4799;50.996;4.754;2023-05-07T07:01:25;11.00;;;9.93;;
8861;SDS011;4799;50.996;4.754;2023-05-07T07:03:51;9.80;;;8.80;;
8861;SDS011;4799;50.996;4.754;2023-05-07T07:06:17;11.00;;;10.00;;
8861;SDS011;4799;50.996;4.754;2023-05-07T07:08:43;11.60;;;10.60;;
8861;SDS011;4799;50.996;4.754;2023-05-07T07:11:09;10.77;;;9.77;;
8861;SDS011;4799;50.996;4.754;2023-05-07T07:13:35;10.43;;;9.43;;
8861;SDS011;4799;50.996;4.754;2023-05-07T07:16:01;10.53;;;9.57;;
8861;SDS011;4799;50.996;4.754;2023-05-07T07:18:28;12.03;;;10.40;;
8861;SDS011;4799;50.996;4.754;2023-05-07T07:20:54;11.30;;;10.20;;
8861;SDS011;4799;50.996;4.754;2023-05-07T07:23:19;10.90;;;9.80;;
8861;SDS011;4799;50.996;4.754;2023-05-07T07:25:45;9.97;;;9.00;;
8861;SDS011;4799;50.996;4.754;2023-05-07T07:28:11;11.67;;;10.50;;
8861;SDS011;4799;50.996;4.754;2023-05-07T07:30:37;11.20;;;10.10;;
8861;SDS011;4799;50.996;4.754;2023-05-07T07:33:03;10.17;;;9.20;;
8861;SDS011;4799;50.996;4.754;2023-05-07T07:35:30;10.83;;;9.73;;
8861;SDS011;4799;50.996;4.754;2023-05-07T07:37:56;10.57;;;9.67;;
8861;SDS011;4799;50.996;4.754;2023-05-07T07:40:22;10.30;;;9.37;;
8861;SDS011;4799;50.996;4.754;2023-05-07T07:42:48;10.40;;;9.40;;
8861;SDS011;4799;50.996;4.754;2023-05-07T07:45:14;10.03;;;9.03;;
8861;SDS011;4799;50.996;4.754;2023-05-07T07:47:40;9.47;;;8.67;;
8861;SDS011;4799;50.996;4.754;2023-05-07T07:50:06;14.20;;;9.03;;
8861;SDS011;4799;50.996;4.754;2023-05-07T07:52:33;9.63;;;8.73;;
8861;SDS011;4799;50.996;4.754;2023-05-07T07:54:59;9.77;;;8.77;;
8861;SDS011;4799;50.996;4.754;2023-05-07T07:57:25;8.83;;;7.93;;
8861;SDS011;4799;50.996;4.754;2023-05-07T07:59:51;9.73;;;8.73;;
8861;SDS011;4799;50.996;4.754;2023-05-07T08:02:17;10.83;;;8.30;;
8861;SDS011;4799;50.996;4.754;2023-05-07T08:04:43;8.27;;;7.37;;
8861;SDS011;4799;50.996;4.754;2023-05-07T08:07:09;8.53;;;7.50;;
8861;SDS011;4799;50.996;4.754;2023-05-07T08:09:35;11.00;;;8.27;;
8861;SDS011;4799;50.996;4.754;2023-05-07T08:12:05;9.80;;;7.40;;
8861;SDS011;4799;50.996;4.754;2023-05-07T08:14:31;9.10;;;6.37;;
8861;SDS011;4799;50.996;4.754;2023-05-07T08:16:57;9.77;;;6.33;;
8861;SDS011;4799;50.996;4.754;2023-05-07T08:19:23;7.07;;;5.20;;
8861;SDS011;4799;50.996;4.754;2023-05-07T08:21:49;7.93;;;5.60;;
8861;SDS011;4799;50.996;4.754;2023-05-07T08:24:15;10.53;;;5.83;;
8861;SDS011;4799;50.996;4.754;2023-05-07T08:26:42;8.33;;;5.60;;
8861;SDS011;4799;50.996;4.754;2023-05-07T08:29:08;6.70;;;5.97;;
8861;SDS011;4799;50.996;4.754;2023-05-07T08:31:34;6.43;;;5.07;;
8861;SDS011;4799;50.996;4.754;2023-05-07T08:34:00;8.17;;;5.30;;
8861;SDS011;4799;50.996;4.754;2023-05-07T08:36:25;7.67;;;5.07;;
8861;SDS011;4799;50.996;4.754;2023-05-07T08:38:51;7.63;;;5.40;;
8861;SDS011;4799;50.996;4.754;2023-05-07T08:41:17;9.53;;;6.00;;
8861;SDS011;4799;50.996;4.754;2023-05-07T08:43:47;7.27;;;5.10;;
8861;SDS011;4799;50.996;4.754;2023-05-07T08:46:19;7.10;;;5.20;;
8861;SDS011;4799;50.996;4.754;2023-05-07T08:48:49;7.70;;;5.33;;
8861;SDS011;4799;50.996;4.754;2023-05-07T08:51:16;6.07;;;5.07;;
8861;SDS011;4799;50.996;4.754;2023-05-07T08:53:43;7.10;;;5.30;;
8861;SDS011;4799;50.996;4.754;2023-05-07T08:56:10;6.47;;;5.27;;
8861;SDS011;4799;50.996;4.754;2023-05-07T08:58:37;7.23;;;5.13;;
8861;SDS011;4799;50.996;4.754;2023-05-07T09:01:03;8.43;;;5.50;;
8861;SDS011;4799;50.996;4.754;2023-05-07T09:03:33;7.00;;;5.37;;
8861;SDS011;4799;50.996;4.754;2023-05-07T09:05:59;7.90;;;5.30;;
8861;SDS011;4799;50.996;4.754;2023-05-07T09:08:25;6.33;;;4.73;;
8861;SDS011;4799;50.996;4.754;2023-05-07T09:10:52;6.17;;;4.53;;
8861;SDS011;4799;50.996;4.754;2023-05-07T09:13:18;6.70;;;4.73;;
8861;SDS011;4799;50.996;4.754;2023-05-07T09:15:45;5.33;;;4.27;;
8861;SDS011;4799;50.996;4.754;2023-05-07T09:18:11;5.97;;;4.40;;
8861;SDS011;4799;50.996;4.754;2023-05-07T09:20:38;5.50;;;4.23;;
8861;SDS011;4799;50.996;4.754;2023-05-07T09:23:05;5.93;;;4.13;;
8861;SDS011;4799;50.996;4.754;2023-05-07T09:25:32;5.33;;;3.93;;
8861;SDS011;4799;50.996;4.754;2023-05-07T09:28:00;6.77;;;4.67;;
8861;SDS011;4799;50.996;4.754;2023-05-07T09:30:32;6.27;;;4.23;;
8861;SDS011;4799;50.996;4.754;2023-05-07T09:32:59;4.77;;;3.70;;
8861;SDS011;4799;50.996;4.754;2023-05-07T09:35:26;8.47;;;4.50;;
8861;SDS011;4799;50.996;4.754;2023-05-07T09:37:53;6.17;;;4.17;;
8861;SDS011;4799;50.996;4.754;2023-05-07T09:40:21;5.30;;;3.80;;
8861;SDS011;4799;50.996;4.754;2023-05-07T09:42:51;5.03;;;3.70;;
8861;SDS011;4799;50.996;4.754;2023-05-07T09:45:26;5.17;;;3.83;;
8861;SDS011;4799;50.996;4.754;2023-05-07T09:47:54;7.03;;;3.90;;
8861;SDS011;4799;50.996;4.754;2023-05-07T09:50:25;4.67;;;3.73;;
8861;SDS011;4799;50.996;4.754;2023-05-07T09:52:57;4.43;;;3.33;;
8861;SDS011;4799;50.996;4.754;2023-05-07T09:55:23;5.03;;;3.80;;
8861;SDS011;4799;50.996;4.754;2023-05-07T09:57:50;6.27;;;3.87;;
8861;SDS011;4799;50.996;4.754;2023-05-07T10:00:20;5.37;;;3.67;;
8861;SDS011;4799;50.996;4.754;2023-05-07T10:02:51;5.37;;;3.70;;
8861;SDS011;4799;50.996;4.754;2023-05-07T10:05:18;5.23;;;3.63;;
8861;SDS011;4799;50.996;4.754;2023-05-07T10:07:45;4.83;;;3.70;;
8861;SDS011;4799;50.996;4.754;2023-05-07T10:10:12;6.13;;;3.70;;
8861;SDS011;4799;50.996;4.754;2023-05-07T10:12:39;6.13;;;3.27;;
8861;SDS011;4799;50.996;4.754;2023-05-07T10:15:06;5.97;;;3.90;;
8861;SDS011;4799;50.996;4.754;2023-05-07T10:17:35;5.63;;;3.63;;
8861;SDS011;4799;50.996;4.754;2023-05-07T10:20:03;4.47;;;3.80;;
8861;SDS011;4799;50.996;4.754;2023-05-07T10:22:37;5.77;;;3.80;;
8861;SDS011;4799;50.996;4.754;2023-05-07T10:25:12;5.67;;;4.27;;
8861;SDS011;4799;50.996;4.754;2023-05-07T10:27:51;5.67;;;4.17;;
8861;SDS011;4799;50.996;4.754;2023-05-07T10:30:30;4.73;;;3.80;;
8861;SDS011;4799;50.996;4.754;2023-05-07T10:33:10;4.77;;;4.03;;
8861;SDS011;4799;50.996;4.754;2023-05-07T10:35:39;5.17;;;4.00;;
8861;SDS011;4799;50.996;4.754;2023-05-07T10:38:07;5.33;;;3.67;;
8861;SDS011;4799;50.996;4.754;2023-05-07T10:40:34;5.50;;;3.87;;
8861;SDS011;4799;50.996;4.754;2023-05-07T10:43:01;5.00;;;3.43;;
8861;SDS011;4799;50.996;4.754;2023-05-07T10:45:29;4.77;;;3.20;;
8861;SDS011;4799;50.996;4.754;2023-05-07T10:48:12;4.43;;;3.37;;
8861;SDS011;4799;50.996;4.754;2023-05-07T10:50:40;4.27;;;3.30;;
8861;SDS011;4799;50.996;4.754;2023-05-07T10:55:43;5.13;;;3.10;;
8861;SDS011;4799;50.996;4.754;2023-05-07T11:00:57;5.67;;;3.60;;
8861;SDS011;4799;50.996;4.754;2023-05-07T11:03:23;4.90;;;3.30;;
8861;SDS011;4799;50.996;4.754;2023-05-07T11:06:12;4.47;;;3.10;;
8861;SDS011;4799;50.996;4.754;2023-05-07T11:08:52;5.80;;;3.30;;
8861;SDS011;4799;50.996;4.754;2023-05-07T11:14:13;6.17;;;3.83;;
8861;SDS011;4799;50.996;4.754;2023-05-07T11:17:02;4.80;;;3.20;;
8861;SDS011;4799;50.996;4.754;2023-05-07T11:19:47;4.83;;;3.40;;
8861;SDS011;4799;50.996;4.754;2023-05-07T11:22:51;5.13;;;3.50;;
8861;SDS011;4799;50.996;4.754;2023-05-07T11:25:09;5.13;;;3.20;;
8861;SDS011;4799;50.996;4.754;2023-05-07T11:27:41;5.67;;;3.40;;
8861;SDS011;4799;50.996;4.754;2023-05-07T11:30:08;6.10;;;3.60;;
8861;SDS011;4799;50.996;4.754;2023-05-07T11:32:34;5.07;;;3.33;;
8861;SDS011;4799;50.996;4.754;2023-05-07T11:35:00;4.70;;;3.13;;
8861;SDS011;4799;50.996;4.754;2023-05-07T11:37:26;7.43;;;4.27;;
8861;SDS011;4799;50.996;4.754;2023-05-07T11:40:07;4.13;;;3.17;;
8861;SDS011;4799;50.996;4.754;2023-05-07T11:42:36;5.43;;;3.80;;
8861;SDS011;4799;50.996;4.754;2023-05-07T11:45:03;5.27;;;3.00;;
8861;SDS011;4799;50.996;4.754;2023-05-07T11:47:30;6.07;;;3.90;;
8861;SDS011;4799;50.996;4.754;2023-05-07T11:49:56;5.67;;;4.10;;
8861;SDS011;4799;50.996;4.754;2023-05-07T11:52:30;5.30;;;3.57;;
8861;SDS011;4799;50.996;4.754;2023-05-07T11:54:57;4.83;;;3.43;;
8861;SDS011;4799;50.996;4.754;2023-05-07T11:57:24;5.00;;;3.50;;
8861;SDS011;4799;50.996;4.754;2023-05-07T11:59:54;5.87;;;3.40;;
8861;SDS011;4799;50.996;4.754;2023-05-07T12:02:20;6.27;;;3.90;;
8861;SDS011;4799;50.996;4.754;2023-05-07T12:04:46;5.07;;;3.40;;
8861;SDS011;4799;50.996;4.754;2023-05-07T12:07:12;4.67;;;2.80;;
8861;SDS011;4799;50.996;4.754;2023-05-07T12:09:41;4.50;;;3.13;;
8861;SDS011;4799;50.996;4.754;2023-05-07T12:12:07;5.03;;;3.10;;
8861;SDS011;4799;50.996;4.754;2023-05-07T12:14:43;4.87;;;3.23;;
8861;SDS011;4799;50.996;4.754;2023-05-07T12:17:10;4.70;;;3.40;;
8861;SDS011;4799;50.996;4.754;2023-05-07T12:19:38;4.13;;;2.90;;
8861;SDS011;4799;50.996;4.754;2023-05-07T12:22:06;5.43;;;3.57;;
8861;SDS011;4799;50.996;4.754;2023-05-07T12:24:46;3.93;;;3.00;;
8861;SDS011;4799;50.996;4.754;2023-05-07T12:27:16;5.43;;;3.17;;
8861;SDS011;4799;50.996;4.754;2023-05-07T12:29:49;4.60;;;2.60;;
8861;SDS011;4799;50.996;4.754;2023-05-07T12:32:24;4.67;;;2.80;;
8861;SDS011;4799;50.996;4.754;2023-05-07T12:34:50;4.47;;;2.70;;
8861;SDS011;4799;50.996;4.754;2023-05-07T12:37:17;4.23;;;2.63;;
8861;SDS011;4799;50.996;4.754;2023-05-07T12:39:49;4.93;;;2.30;;
8861;SDS011;4799;50.996;4.754;2023-05-07T12:42:28;4.13;;;2.30;;
8861;SDS011;4799;50.996;4.754;2023-05-07T12:45:16;3.83;;;2.20;;
8861;SDS011;4799;50.996;4.754;2023-05-07T12:47:45;3.47;;;1.90;;
8861;SDS011;4799;50.996;4.754;2023-05-07T12:50:12;4.60;;;2.70;;
8861;SDS011;4799;50.996;4.754;2023-05-07T12:52:39;4.17;;;2.30;;
8861;SDS011;4799;50.996;4.754;2023-05-07T12:55:08;3.77;;;2.30;;
8861;SDS011;4799;50.996;4.754;2023-05-07T12:57:37;3.67;;;2.17;;
8861;SDS011;4799;50.996;4.754;2023-05-07T13:00:05;3.30;;;2.23;;
8861;SDS011;4799;50.996;4.754;2023-05-07T13:02:32;3.00;;;2.30;;
8861;SDS011;4799;50.996;4.754;2023-05-07T13:04:59;4.53;;;2.40;;
8861;SDS011;4799;50.996;4.754;2023-05-07T13:07:25;3.93;;;2.17;;
8861;SDS011;4799;50.996;4.754;2023-05-07T13:09:51;4.67;;;2.50;;
8861;SDS011;4799;50.996;4.754;2023-05-07T13:12:16;4.50;;;2.30;;
8861;SDS011;4799;50.996;4.754;2023-05-07T13:14:42;3.67;;;2.70;;
8861;SDS011;4799;50.996;4.754;2023-05-07T13:17:08;3.47;;;2.30;;
8861;SDS011;4799;50.996;4.754;2023-05-07T13:19:33;2.80;;;2.10;;
8861;SDS011;4799;50.996;4.754;2023-05-07T13:21:59;2.83;;;2.10;;
8861;SDS011;4799;50.996;4.754;2023-05-07T13:24:25;4.37;;;2.43;;
8861;SDS011;4799;50.996;4.754;2023-05-07T13:26:50;3.40;;;2.20;;
8861;SDS011;4799;50.996;4.754;2023-05-07T13:29:16;3.97;;;2.20;;
8861;SDS011;4799;50.996;4.754;2023-05-07T13:31:42;3.83;;;2.43;;
8861;SDS011;4799;50.996;4.754;2023-05-07T13:34:09;3.50;;;2.30;;
8861;SDS011;4799;50.996;4.754;2023-05-07T13:36:35;4.17;;;2.13;;
8861;SDS011;4799;50.996;4.754;2023-05-07T13:39:04;3.67;;;2.37;;
8861;SDS011;4799;50.996;4.754;2023-05-07T13:41:31;3.37;;;2.20;;
8861;SDS011;4799;50.996;4.754;2023-05-07T13:43:56;3.70;;;2.20;;
8861;SDS011;4799;50.996;4.754;2023-05-07T13:46:22;4.83;;;2.40;;
8861;SDS011;4799;50.996;4.754;2023-05-07T13:48:48;3.07;;;2.13;;
8861;SDS011;4799;50.996;4.754;2023-05-07T13:51:14;4.10;;;2.20;;
8861;SDS011;4799;50.996;4.754;2023-05-07T13:53:39;3.63;;;1.93;;
8861;SDS011;4799;50.996;4.754;2023-05-07T13:56:05;3.83;;;2.23;;
8861;SDS011;4799;50.996;4.754;2023-05-07T13:58:31;4.43;;;1.97;;
8861;SDS011;4799;50.996;4.754;2023-05-07T14:00:56;3.40;;;2.30;;
8861;SDS011;4799;50.996;4.754;2023-05-07T14:03:22;3.83;;;2.03;;
8861;SDS011;4799;50.996;4.754;2023-05-07T14:05:48;3.73;;;2.23;;
8861;SDS011;4799;50.996;4.754;2023-05-07T14:08:13;3.87;;;2.43;;
8861;SDS011;4799;50.996;4.754;2023-05-07T14:10:39;3.27;;;2.10;;
8861;SDS011;4799;50.996;4.754;2023-05-07T14:13:05;4.23;;;2.53;;
8861;SDS011;4799;50.996;4.754;2023-05-07T14:15:31;4.13;;;2.40;;
8861;SDS011;4799;50.996;4.754;2023-05-07T14:18:00;4.30;;;2.40;;
8861;SDS011;4799;50.996;4.754;2023-05-07T14:20:26;3.87;;;2.50;;
8861;SDS011;4799;50.996;4.754;2023-05-07T14:22:51;5.07;;;2.60;;
8861;SDS011;4799;50.996;4.754;2023-05-07T14:25:17;3.77;;;2.40;;
8861;SDS011;4799;50.996;4.754;2023-05-07T14:27:43;3.27;;;2.37;;
8861;SDS011;4799;50.996;4.754;2023-05-07T14:30:09;3.57;;;2.50;;
8861;SDS011;4799;50.996;4.754;2023-05-07T14:32:35;3.80;;;2.77;;
8861;SDS011;4799;50.996;4.754;2023-05-07T14:35:01;5.07;;;3.27;;
8861;SDS011;4799;50.996;4.754;2023-05-07T14:37:26;4.53;;;2.80;;
8861;SDS011;4799;50.996;4.754;2023-05-07T14:39:53;4.10;;;2.87;;
8861;SDS011;4799;50.996;4.754;2023-05-07T14:42:18;4.37;;;2.70;;
8861;SDS011;4799;50.996;4.754;2023-05-07T14:44:45;3.13;;;2.47;;
8861;SDS011;4799;50.996;4.754;2023-05-07T14:47:11;4.20;;;2.70;;
8861;SDS011;4799;50.996;4.754;2023-05-07T14:49:37;5.43;;;2.83;;
8861;SDS011;4799;50.996;4.754;2023-05-07T14:52:03;4.30;;;2.70;;
8861;SDS011;4799;50.996;4.754;2023-05-07T14:54:33;5.43;;;3.00;;
8861;SDS011;4799;50.996;4.754;2023-05-07T14:57:00;4.40;;;2.70;;
8861;SDS011;4799;50.996;4.754;2023-05-07T14:59:26;3.77;;;2.50;;
8861;SDS011;4799;50.996;4.754;2023-05-07T15:01:51;4.60;;;2.63;;
8861;SDS011;4799;50.996;4.754;2023-05-07T15:04:17;3.50;;;2.57;;
8861;SDS011;4799;50.996;4.754;2023-05-07T15:06:43;4.63;;;2.90;;
8861;SDS011;4799;50.996;4.754;2023-05-07T15:09:09;3.10;;;2.23;;
8861;SDS011;4799;50.996;4.754;2023-05-07T15:11:35;3.90;;;2.50;;
8861;SDS011;4799;50.996;4.754;2023-05-07T15:14:01;5.10;;;2.77;;
8861;SDS011;4799;50.996;4.754;2023-05-07T15:16:26;6.00;;;2.80;;